Flight Track Log - Related Links

Times and Time Zones

All times are in EDT time to prevent confusion due to time zone crossing. See the N145EA flight status page for this flight to view local times or setup timezone preferences in your user account.

Time Position Orientation Groundspeed Altitude Reporting Facility
EDT Latitude Longitude Course Direction KTS MPH feet Rate Location/Type
Sun 06:32:11 PM 36.8733 -111.3714 190° South 228 262 13,900  Level Denver Center
Sun 06:33:12 PM 36.7975 -111.3825 187° South 229 264 16,200 1,854 Climbing Denver Center
Sun 06:34:14 PM 36.7303 -111.3956 189° South 234 269 17,700 1,210 Climbing Denver Center
Sun 06:35:16 PM 36.6517 -111.4089 188° South 266 306 18,700 1,161 Climbing Denver Center
Sun 06:36:18 PM 36.5703 -111.4233 188° South 286 329 20,100 1,463 Climbing Denver Center
Sun 06:37:19 PM 36.4864 -111.4386 188° South 297 342 21,700 1,415 Climbing Denver Center
Sun 06:38:21 PM 36.4050 -111.4544 189° South 297 342 23,000 629 Climbing Denver Center
Sun 06:39:23 PM 36.3106 -111.4706 188° South 324 373 23,000  Level Denver Center
Sun 06:40:24 PM 36.2067 -111.4917 189° South 364 419 23,000  Level Denver Center
Sun 06:41:26 PM 36.0808 -111.5131 188° South 377 434 23,000  Level Denver Center
Sun 06:42:28 PM 35.9758 -111.5306 188° South 377 434 23,000  Level Denver Center
Sun 06:43:29 PM 35.8714 -111.5500 189° South 377 434 23,000  Level Denver Center
Sun 06:44:10 PM 35.8064 -111.5644 190° South 378 435 23,000  Level Albuquerque Center
Sun 06:45:12 PM 35.7061 -111.5892 191° South 372 428 23,000  Level Albuquerque Center
Sun 06:46:13 PM 35.6053 -111.6139 191° South 371 427 23,000  Level Albuquerque Center
Sun 06:47:15 PM 35.5019 -111.6367 190° South 372 428 23,000  Level Albuquerque Center
Sun 06:48:17 PM 35.3756 -111.6636 190° South 381 438 23,000  Level Albuquerque Center
Sun 06:49:18 PM 35.2806 -111.6858 191° South 381 438 23,000  Level Albuquerque Center
Sun 06:50:20 PM 35.1792 -111.7083 190° South 375 432 23,000  Level Albuquerque Center
Sun 06:51:21 PM 35.0681 -111.7331 190° South 374 430 23,000 -439 Level Albuquerque Center
Sun 06:52:23 PM 34.9631 -111.7569 191° South 377 434 22,100 -1,065 Descending Albuquerque Center
Sun 06:53:25 PM 34.8536 -111.7819 191° South 393 452 20,800 -1,073 Descending Albuquerque Center
Sun 06:54:26 PM 34.7328 -111.8086 190° South 395 455 19,900 -390 Descending Albuquerque Center
Sun 06:55:28 PM 34.6303 -111.8297 190° South 382 440 20,000 -242 Climbing Albuquerque Center
Sun 06:56:30 PM 34.5314 -111.8519 190° South 368 423 19,400 -1,707 Descending Albuquerque Center
Sun 06:57:31 PM 34.4222 -111.8753 190° South 390 449 16,500 -2,927 Descending Albuquerque Center
Sun 06:58:33 PM 34.3183 -111.9008 191° South 390 449 13,400 -2,177 Descending Albuquerque Center
Sun 06:59:35 PM 34.2139 -111.9208 189° South 321 369 12,000 -1,073 Descending Albuquerque Center
Sun 07:00:36 PM 34.1319 -111.9292 185° South 300 345 11,200 -878 Descending Albuquerque Center
Sun 07:01:38 PM 34.0489 -111.9300 180° South 301 346 10,200 -1,073 Descending Albuquerque Center
Sun 07:02:39 PM 33.9733 -111.9353 183° South 276 318 9,000 -1,122 Descending Albuquerque Center
Sun 07:03:41 PM 33.9122 -111.9581 197° South 239 275 7,900 -1,113 Descending Albuquerque Center
Sun 07:04:43 PM 33.8550 -111.9944 208° Southwest 228 262 6,700 -878 Descending Albuquerque Center
Sun 07:05:44 PM 33.7894 -111.9994 184° South 226 260 6,100 -341 Descending Albuquerque Center
Sun 07:06:46 PM 33.7617 -111.9344 117° Southeast 224 258 6,000 -390 Descending Albuquerque Center
Sun 07:07:47 PM 33.7450 -111.8781 110° East 184 212 5,300 -780 Descending Albuquerque Center
Sun 07:08:49 PM 33.7058 -111.8464 146° Southeast 176 203 4,400 -1,268 Descending Albuquerque Center
Sun 07:09:50 PM 33.6644 -111.8631 199° South 163 188 2,700 -1,268 Descending Albuquerque Center
Sun 07:10:52 PM 33.6408 -111.8911 225° Southwest 136 157 1,800 -585 Descending Albuquerque Center
Sun 07:11:53 PM 33.6172 -111.9161 221° Southwest 121 139 1,500 -295 Descending Albuquerque Center

Login

Don't have an account? Register now (free) for customized features, flight alerts, and more!